createdAt,value
2022-10-18T00:00:48.765Z,6.49
2022-10-18T00:03:15.400Z,6.48
2022-10-18T00:05:42.024Z,6.46
2022-10-18T00:08:08.937Z,6.42
2022-10-18T00:10:35.623Z,6.41
2022-10-18T00:13:02.266Z,6.39
2022-10-18T00:15:29.052Z,6.38
2022-10-18T00:17:55.742Z,6.35
2022-10-18T00:20:22.396Z,6.32
2022-10-18T00:22:49.052Z,6.29
2022-10-18T00:25:15.743Z,6.25
2022-10-18T00:27:42.371Z,6.24
2022-10-18T00:30:09.562Z,6.23
2022-10-18T00:32:39.988Z,6.22
2022-10-18T00:35:07.258Z,6.21
2022-10-18T00:37:34.469Z,6.20
2022-10-18T00:40:01.387Z,6.20
2022-10-18T00:42:32.043Z,6.19
2022-10-18T00:45:13.289Z,6.17
2022-10-18T00:47:39.996Z,6.14
2022-10-18T00:50:07.054Z,6.11
2022-10-18T00:52:40.235Z,6.12
2022-10-18T00:55:07.308Z,6.11
2022-10-18T00:57:34.075Z,6.09
2022-10-18T01:00:00.754Z,6.09
2022-10-18T01:02:27.397Z,6.08
2022-10-18T01:04:54.055Z,6.07
2022-10-18T01:07:28.970Z,6.05
2022-10-18T01:10:31.418Z,6.02
2022-10-18T01:13:10.645Z,5.98
2022-10-18T01:16:08.440Z,5.97
2022-10-18T01:18:39.886Z,5.95
2022-10-18T01:21:38.437Z,5.94
2022-10-18T01:24:26.773Z,5.91
2022-10-18T01:27:05.874Z,5.87
2022-10-18T01:29:55.524Z,5.86
2022-10-18T01:32:24.458Z,5.84
2022-10-18T01:34:51.393Z,5.82
2022-10-18T01:37:18.034Z,5.80
2022-10-18T01:39:46.083Z,5.79
2022-10-18T01:42:13.901Z,5.77
2022-10-18T01:44:41.081Z,5.76
2022-10-18T01:47:08.932Z,5.76
2022-10-18T01:49:35.645Z,5.75
2022-10-18T01:52:02.369Z,5.75
2022-10-18T01:54:32.537Z,5.75
2022-10-18T01:57:18.007Z,5.73
2022-10-18T02:00:13.442Z,5.72
2022-10-18T02:02:57.796Z,5.68
2022-10-18T02:05:40.371Z,5.66
2022-10-18T02:08:29.353Z,5.62
2022-10-18T02:11:12.548Z,5.60
2022-10-18T02:13:43.426Z,5.57
2022-10-18T02:16:12.494Z,5.57
2022-10-18T02:18:41.592Z,5.57
2022-10-18T02:21:09.303Z,5.56
2022-10-18T02:23:36.095Z,5.57
2022-10-18T02:26:02.768Z,5.57
2022-10-18T02:28:29.463Z,5.57
2022-10-18T02:31:02.480Z,5.56
2022-10-18T02:33:58.521Z,5.55
2022-10-18T02:36:31.858Z,5.54
2022-10-18T02:39:01.615Z,5.51
2022-10-18T02:41:28.383Z,5.50
2022-10-18T02:43:55.010Z,5.50
2022-10-18T02:46:21.724Z,5.48
2022-10-18T02:48:48.527Z,5.48
2022-10-18T02:51:15.196Z,5.46
2022-10-18T02:53:41.884Z,5.45
2022-10-18T02:56:08.643Z,5.43
2022-10-18T02:58:35.333Z,5.42
2022-10-18T03:01:01.952Z,5.40
2022-10-18T03:03:28.722Z,5.38
2022-10-18T03:05:55.366Z,5.37
2022-10-18T03:08:22.800Z,5.37
2022-10-18T03:10:49.574Z,5.36
2022-10-18T03:13:16.280Z,5.35
2022-10-18T03:15:43.036Z,5.32
2022-10-18T03:18:09.740Z,5.27
2022-10-18T03:20:36.372Z,5.24
2022-10-18T03:23:03.403Z,5.20
2022-10-18T03:25:30.227Z,5.15
2022-10-18T03:27:56.930Z,5.11
2022-10-18T03:30:23.602Z,5.07
2022-10-18T03:32:50.399Z,5.05
2022-10-18T03:35:17.085Z,5.04
2022-10-18T03:37:43.718Z,5.03
2022-10-18T03:40:10.668Z,5.03
2022-10-18T03:42:37.275Z,5.04
2022-10-18T03:45:04.526Z,5.06
2022-10-18T03:47:31.211Z,5.07
2022-10-18T03:49:57.825Z,5.08
2022-10-18T03:52:24.560Z,5.08
2022-10-18T03:54:51.241Z,5.08
2022-10-18T03:57:17.851Z,5.09
2022-10-18T03:59:44.502Z,5.09
2022-10-18T04:02:11.256Z,5.08
2022-10-18T04:04:37.913Z,5.07
2022-10-18T04:07:04.708Z,5.07
2022-10-18T04:09:31.471Z,5.07
2022-10-18T04:11:58.119Z,5.06
2022-10-18T04:14:24.784Z,5.06
2022-10-18T04:16:51.668Z,5.06
2022-10-18T04:19:18.344Z,5.07
2022-10-18T04:21:45.108Z,5.08
2022-10-18T04:24:11.751Z,5.10
2022-10-18T04:26:38.399Z,5.11
2022-10-18T04:29:05.121Z,5.12
2022-10-18T04:31:31.810Z,5.13
2022-10-18T04:33:58.457Z,5.13
2022-10-18T04:36:25.097Z,5.12
2022-10-18T04:38:51.744Z,5.13
2022-10-18T04:41:18.396Z,5.14
2022-10-18T04:46:12.572Z,5.15
2022-10-18T04:48:39.630Z,5.16
2022-10-18T04:51:06.305Z,5.16
2022-10-18T04:53:33.036Z,5.16
2022-10-18T04:55:59.843Z,5.19
2022-10-18T04:58:26.563Z,5.26
2022-10-18T05:00:53.258Z,5.47
2022-10-18T05:03:19.957Z,5.94
2022-10-18T05:06:02.779Z,6.65
2022-10-18T05:08:30.560Z,7.45
2022-10-18T05:10:57.287Z,8.11
2022-10-18T05:13:24.020Z,8.75
2022-10-18T05:15:50.670Z,9.14
2022-10-18T05:18:17.435Z,9.38
2022-10-18T05:20:44.076Z,9.37
2022-10-18T05:23:13.644Z,9.24
2022-10-18T05:25:43.544Z,9.16
2022-10-18T05:28:34.590Z,9.15
2022-10-18T05:31:01.340Z,9.04
2022-10-18T05:33:28.083Z,8.93
2022-10-18T05:35:54.792Z,8.82
2022-10-18T05:38:21.611Z,8.74
2022-10-18T05:40:48.391Z,8.70
2022-10-18T05:43:15.131Z,8.74
2022-10-18T05:45:47.761Z,8.77
2022-10-18T05:48:14.437Z,8.80
2022-10-18T05:50:41.114Z,8.80
2022-10-18T05:53:12.480Z,8.82
2022-10-18T05:55:45.135Z,8.85
2022-10-18T05:58:11.872Z,8.89
2022-10-18T06:00:38.799Z,8.95
2022-10-18T06:03:05.560Z,9.02
2022-10-18T06:05:32.350Z,9.13
2022-10-18T06:07:59.114Z,9.28
2022-10-18T06:10:25.738Z,9.45
2022-10-18T06:12:52.357Z,9.68
2022-10-18T06:15:18.989Z,9.90
2022-10-18T06:17:45.665Z,10.11
2022-10-18T06:20:12.311Z,10.36
2022-10-18T06:22:39.141Z,10.73
2022-10-18T06:25:06.345Z,11.10
2022-10-18T06:27:34.786Z,11.43
2022-10-18T06:30:01.654Z,11.76
2022-10-18T06:32:28.318Z,12.02
2022-10-18T06:34:54.979Z,12.24
2022-10-18T06:37:21.627Z,12.46
2022-10-18T06:39:48.315Z,12.73
2022-10-18T06:42:16.077Z,13.15
2022-10-18T06:44:44.657Z,13.78
2022-10-18T06:47:11.668Z,14.52
2022-10-18T06:49:38.311Z,15.26
2022-10-18T06:52:05.761Z,15.86
2022-10-18T06:54:32.434Z,16.27
2022-10-18T06:56:59.515Z,16.47
2022-10-18T06:59:28.882Z,16.54
2022-10-18T07:01:57.925Z,16.55
2022-10-18T07:04:24.690Z,16.53
2022-10-18T07:06:54.039Z,16.47
2022-10-18T07:09:20.730Z,16.40
2022-10-18T07:11:47.391Z,16.32
2022-10-18T07:14:16.435Z,16.26
2022-10-18T07:16:43.407Z,16.21
2022-10-18T07:19:10.290Z,16.17
2022-10-18T07:21:37.021Z,16.14
2022-10-18T07:24:03.851Z,16.16
2022-10-18T07:26:32.107Z,16.22
2022-10-18T07:29:01.858Z,16.29
2022-10-18T07:31:29.426Z,16.38
2022-10-18T07:33:56.284Z,16.42
2022-10-18T07:36:23.209Z,16.50
2022-10-18T07:38:50.875Z,16.57
2022-10-18T07:41:17.550Z,16.64
2022-10-18T07:43:45.861Z,16.74
2022-10-18T07:46:12.772Z,16.86
2022-10-18T07:48:39.489Z,16.96
2022-10-18T07:51:06.261Z,17.08
2022-10-18T07:53:34.679Z,17.17
2022-10-18T07:56:05.826Z,17.28
2022-10-18T07:58:35.328Z,17.39
2022-10-18T08:01:03.468Z,17.53
2022-10-18T08:03:30.145Z,17.67
2022-10-18T08:05:56.897Z,17.82
2022-10-18T08:08:23.878Z,17.96
2022-10-18T08:10:50.541Z,18.09
2022-10-18T08:13:17.369Z,18.17
2022-10-18T08:15:44.189Z,18.25
2022-10-18T08:18:10.936Z,18.37
2022-10-18T08:20:37.841Z,18.48
2022-10-18T08:23:04.967Z,18.61
2022-10-18T08:25:31.657Z,18.72
2022-10-18T08:27:59.080Z,18.81
2022-10-18T08:30:25.819Z,18.93
2022-10-18T08:32:52.697Z,19.02
2022-10-18T08:35:19.634Z,19.10
2022-10-18T08:37:46.495Z,19.21
2022-10-18T08:40:14.215Z,19.32
2022-10-18T08:42:59.436Z,19.43
2022-10-18T08:45:40.978Z,19.53
2022-10-18T08:48:16.373Z,19.62
2022-10-18T08:50:42.984Z,19.72
2022-10-18T08:53:55.362Z,19.81
2022-10-18T08:56:24.488Z,19.93
2022-10-18T08:58:51.296Z,20.00
2022-10-18T09:01:50.502Z,20.10
2022-10-18T09:04:26.272Z,20.20
2022-10-18T09:07:08.200Z,20.28
2022-10-18T09:09:55.149Z,20.36
2022-10-18T09:12:58.612Z,20.41
2022-10-18T09:15:50.126Z,20.48
2022-10-18T09:18:24.638Z,20.53
2022-10-18T09:20:51.351Z,20.57
2022-10-18T09:23:23.128Z,20.59
2022-10-18T09:25:53.568Z,20.63
2022-10-18T09:28:48.389Z,20.69
2022-10-18T09:31:36.703Z,20.73
2022-10-18T09:34:11.669Z,20.79
2022-10-18T09:36:38.719Z,20.88
2022-10-18T09:39:11.117Z,20.94
2022-10-18T09:41:39.033Z,21.00
2022-10-18T09:44:09.153Z,21.06
2022-10-18T09:46:41.105Z,21.11
2022-10-18T09:49:17.160Z,21.14
2022-10-18T09:51:43.900Z,21.17
2022-10-18T09:54:35.984Z,21.18
2022-10-18T09:57:08.244Z,21.11
2022-10-18T09:59:53.065Z,21.06
2022-10-18T10:02:22.197Z,21.04
2022-10-18T10:04:49.985Z,21.01
2022-10-18T10:07:29.928Z,21.02
2022-10-18T10:10:06.545Z,21.02
2022-10-18T10:12:37.868Z,21.01
2022-10-18T10:15:18.035Z,21.00
2022-10-18T10:17:53.291Z,20.96
2022-10-18T10:20:24.666Z,20.93
2022-10-18T10:22:51.808Z,20.87
2022-10-18T10:25:28.815Z,20.83
2022-10-18T10:27:55.689Z,20.79
2022-10-18T10:30:30.579Z,20.77
2022-10-18T10:32:57.321Z,20.76
2022-10-18T10:35:52.520Z,20.76
2022-10-18T10:38:25.587Z,20.74
2022-10-18T10:40:52.287Z,20.76
2022-10-18T10:43:44.556Z,20.79
2022-10-18T10:46:19.298Z,20.82
2022-10-18T10:49:09.587Z,20.85
2022-10-18T10:51:41.597Z,20.85
2022-10-18T10:54:15.427Z,20.86
2022-10-18T10:57:11.350Z,20.88
2022-10-18T11:02:17.800Z,20.89
2022-10-18T11:04:51.983Z,20.90
2022-10-18T11:07:36.825Z,20.91
2022-10-18T11:10:07.085Z,20.91
2022-10-18T11:12:37.290Z,20.92
2022-10-18T11:15:10.483Z,20.92
2022-10-18T11:17:46.645Z,20.92
2022-10-18T11:20:21.401Z,20.93
2022-10-18T11:22:56.827Z,20.93
2022-10-18T11:25:25.423Z,20.93
2022-10-18T11:28:03.046Z,20.92
2022-10-18T11:30:38.935Z,20.94
2022-10-18T11:33:15.439Z,20.94
2022-10-18T11:35:52.497Z,20.94
2022-10-18T11:40:02.008Z,20.98
2022-10-18T11:42:41.181Z,20.98
2022-10-18T11:45:11.098Z,21.01
2022-10-18T11:47:44.925Z,21.03
2022-10-18T11:50:21.572Z,21.06
2022-10-18T11:53:19.444Z,21.09
2022-10-18T11:56:02.944Z,21.13
2022-10-18T11:58:40.283Z,21.17
2022-10-18T12:01:14.599Z,21.22
2022-10-18T12:03:52.768Z,21.27
2022-10-18T12:06:21.796Z,21.30
2022-10-18T12:08:50.729Z,21.33
2022-10-18T12:11:30.843Z,21.38
2022-10-18T12:14:00.010Z,21.41
2022-10-18T12:16:50.365Z,21.44
2022-10-18T12:19:28.474Z,21.46
2022-10-18T12:21:56.501Z,21.47
2022-10-18T12:24:25.751Z,21.48
2022-10-18T12:26:53.881Z,21.49
2022-10-18T12:29:26.180Z,21.51
2022-10-18T12:31:54.882Z,21.52
2022-10-18T12:34:24.735Z,21.52
2022-10-18T12:37:14.644Z,21.52
2022-10-18T12:40:05.090Z,21.52
2022-10-18T12:42:31.608Z,21.53
2022-10-18T12:45:03.048Z,21.53
2022-10-18T12:47:29.859Z,21.53
2022-10-18T12:50:27.382Z,21.52
2022-10-18T12:53:09.373Z,21.50
2022-10-18T12:55:37.390Z,21.49
2022-10-18T12:58:11.201Z,21.46
2022-10-18T13:00:37.830Z,21.41
2022-10-18T13:03:13.494Z,21.37
2022-10-18T13:05:53.957Z,21.35
2022-10-18T13:08:27.962Z,21.31
2022-10-18T13:11:10.233Z,21.29
2022-10-18T13:14:01.115Z,21.28
2022-10-18T13:16:43.117Z,21.25
2022-10-18T13:19:31.561Z,21.23
2022-10-18T13:22:20.307Z,21.18
2022-10-18T13:24:56.163Z,21.12
2022-10-18T13:27:44.216Z,21.07
2022-10-18T13:30:23.045Z,21.02
2022-10-18T13:32:52.660Z,20.97
2022-10-18T13:35:39.271Z,20.93
2022-10-18T13:38:27.259Z,20.88
2022-10-18T13:41:15.214Z,20.82
2022-10-18T13:43:54.150Z,20.76
2022-10-18T13:46:21.667Z,20.71
2022-10-18T13:48:49.653Z,20.66
2022-10-18T13:51:25.430Z,20.61
2022-10-18T13:53:57.938Z,20.55
2022-10-18T13:56:28.885Z,20.49
2022-10-18T13:59:25.612Z,20.41
2022-10-18T14:02:51.428Z,20.31
2022-10-18T14:05:47.582Z,20.20
2022-10-18T14:08:20.983Z,20.10
2022-10-18T14:11:03.679Z,20.01
2022-10-18T14:13:56.823Z,19.91
2022-10-18T14:16:34.854Z,19.82
2022-10-18T14:19:09.163Z,19.73
2022-10-18T14:21:37.430Z,19.65
2022-10-18T14:24:20.546Z,19.59
2022-10-18T14:26:47.440Z,19.52
2022-10-18T14:29:19.580Z,19.47
2022-10-18T14:31:53.961Z,19.39
2022-10-18T14:34:20.652Z,19.31
2022-10-18T14:36:48.532Z,19.24
2022-10-18T14:39:25.440Z,19.15
2022-10-18T14:41:53.641Z,19.06
2022-10-18T14:44:24.513Z,18.98
2022-10-18T14:46:52.505Z,18.88
2022-10-18T14:49:20.315Z,18.78
2022-10-18T14:51:50.397Z,18.66
2022-10-18T14:54:24.958Z,18.54
2022-10-18T14:56:54.528Z,18.41
2022-10-18T14:59:23.678Z,18.25
2022-10-18T15:01:56.041Z,18.09
2022-10-18T15:04:28.531Z,17.95
2022-10-18T15:06:55.545Z,17.78
2022-10-18T15:09:22.287Z,17.62
2022-10-18T15:11:49.117Z,17.47
2022-10-18T15:14:17.974Z,17.32
2022-10-18T15:16:44.846Z,17.17
2022-10-18T15:19:14.794Z,17.00
2022-10-18T15:22:19.703Z,16.84
2022-10-18T15:24:43.610Z,16.66
2022-10-18T15:27:21.128Z,16.51
2022-10-18T15:29:47.976Z,16.36
2022-10-18T15:32:30.937Z,16.22
2022-10-18T15:35:16.625Z,16.05
2022-10-18T15:37:44.645Z,15.90
2022-10-18T15:40:21.439Z,15.77
2022-10-18T15:42:51.614Z,15.64
2022-10-18T15:45:29.332Z,15.54
2022-10-18T15:48:04.989Z,15.43
2022-10-18T15:50:46.038Z,15.33
2022-10-18T15:53:25.309Z,15.22
2022-10-18T15:56:01.264Z,15.11
2022-10-18T15:58:37.083Z,15.02
2022-10-18T16:01:04.520Z,14.92
2022-10-18T16:03:35.128Z,14.82
2022-10-18T16:06:06.780Z,14.72
2022-10-18T16:08:41.134Z,14.62
2022-10-18T16:11:28.473Z,14.53
2022-10-18T16:13:57.987Z,14.42
2022-10-18T16:16:27.629Z,14.33
2022-10-18T16:18:54.520Z,14.26
2022-10-18T16:21:27.912Z,14.16
2022-10-18T16:23:54.632Z,14.08
2022-10-18T16:26:21.524Z,14.00
2022-10-18T16:28:48.745Z,13.92
2022-10-18T16:31:23.374Z,13.85
2022-10-18T16:33:50.799Z,13.77
2022-10-18T16:36:18.752Z,13.71
2022-10-18T16:38:45.504Z,13.64
2022-10-18T16:41:16.033Z,13.58
2022-10-18T16:43:43.847Z,13.52
2022-10-18T16:46:31.352Z,13.48
2022-10-18T16:48:58.285Z,13.43
2022-10-18T16:51:25.040Z,13.37
2022-10-18T16:53:53.374Z,13.32
2022-10-18T16:56:21.688Z,13.25
2022-10-18T16:58:48.561Z,13.20
2022-10-18T17:01:16.713Z,13.16
2022-10-18T17:03:43.758Z,13.14
2022-10-18T17:06:14.724Z,13.12
2022-10-18T17:08:41.345Z,13.11
2022-10-18T17:11:09.391Z,13.09
2022-10-18T17:13:36.119Z,13.08
2022-10-18T17:16:03.837Z,13.04
2022-10-18T17:18:30.723Z,13.02
2022-10-18T17:21:00.731Z,13.00
2022-10-18T17:23:27.349Z,12.98
2022-10-18T17:26:06.965Z,12.96
2022-10-18T17:28:40.899Z,12.94
2022-10-18T17:31:07.865Z,12.90
2022-10-18T17:33:34.642Z,12.87
2022-10-18T17:36:01.336Z,12.85
2022-10-18T17:38:28.209Z,12.84
2022-10-18T17:40:54.953Z,12.82
2022-10-18T17:43:22.751Z,12.79
2022-10-18T17:45:51.190Z,12.76
2022-10-18T17:48:18.134Z,12.73
2022-10-18T17:50:45.011Z,12.70
2022-10-18T17:53:13.065Z,12.67
2022-10-18T17:55:40.006Z,12.66
2022-10-18T17:58:06.818Z,12.64
2022-10-18T18:00:33.635Z,12.61
2022-10-18T18:03:00.792Z,12.58
2022-10-18T18:05:31.790Z,12.54
2022-10-18T18:08:02.894Z,12.50
2022-10-18T18:10:34.283Z,12.44
2022-10-18T18:13:01.468Z,12.37
2022-10-18T18:15:28.364Z,12.30
2022-10-18T18:17:57.406Z,12.22
2022-10-18T18:20:25.325Z,12.17
2022-10-18T18:22:52.129Z,12.12
2022-10-18T18:25:18.915Z,12.04
2022-10-18T18:27:45.569Z,11.98
2022-10-18T18:30:12.488Z,11.94
2022-10-18T18:32:39.667Z,11.90
2022-10-18T18:35:06.676Z,11.87
2022-10-18T18:37:33.470Z,11.84
2022-10-18T18:40:00.115Z,11.81
2022-10-18T18:42:26.804Z,11.78
2022-10-18T18:44:53.472Z,11.75
2022-10-18T18:47:25.235Z,11.71
2022-10-18T18:49:51.897Z,11.63
2022-10-18T18:52:18.578Z,11.56
2022-10-18T18:54:45.273Z,11.49
2022-10-18T18:57:11.926Z,11.43
2022-10-18T18:59:38.670Z,11.38
2022-10-18T19:02:05.299Z,11.36
2022-10-18T19:04:32.416Z,11.37
2022-10-18T19:06:59.253Z,11.38
2022-10-18T19:09:27.511Z,11.40
2022-10-18T19:11:55.195Z,11.44
2022-10-18T19:16:55.313Z,11.57
2022-10-18T19:19:23.234Z,11.61
2022-10-18T19:21:54.685Z,11.66
2022-10-18T19:24:22.096Z,11.69
2022-10-18T19:26:53.532Z,11.70
2022-10-18T19:29:28.733Z,11.72
2022-10-18T19:31:57.168Z,11.76
2022-10-18T19:34:25.562Z,11.79
2022-10-18T19:36:53.068Z,11.83
2022-10-18T19:39:25.804Z,11.89
2022-10-18T19:41:55.446Z,11.96
2022-10-18T19:44:23.248Z,12.03
2022-10-18T19:46:52.885Z,12.09
2022-10-18T19:49:20.173Z,12.14
2022-10-18T19:51:47.204Z,12.19
2022-10-18T19:54:14.831Z,12.26
2022-10-18T19:56:41.928Z,12.32
2022-10-18T19:59:09.168Z,12.35
2022-10-18T20:01:36.549Z,12.40
2022-10-18T20:04:04.764Z,12.46
2022-10-18T20:06:32.501Z,12.51
2022-10-18T20:08:59.236Z,12.55
2022-10-18T20:11:28.034Z,12.58
2022-10-18T20:13:56.040Z,12.61
2022-10-18T20:16:28.176Z,12.64
2022-10-18T20:18:59.788Z,12.67
2022-10-18T20:21:26.788Z,12.69
2022-10-18T20:23:53.681Z,12.70
2022-10-18T20:26:20.837Z,12.72
2022-10-18T20:28:49.022Z,12.74
2022-10-18T20:31:17.899Z,12.75
2022-10-18T20:33:45.385Z,12.77
2022-10-18T20:36:13.490Z,12.76
2022-10-18T20:38:41.114Z,12.78
2022-10-18T20:41:14.936Z,12.79
2022-10-18T20:43:42.161Z,12.81
2022-10-18T20:46:09.020Z,12.82
2022-10-18T20:48:35.813Z,12.82
2022-10-18T20:51:07.443Z,12.82
2022-10-18T20:53:35.961Z,12.82
2022-10-18T20:56:11.441Z,12.81
2022-10-18T20:58:39.152Z,12.80
2022-10-18T21:01:12.216Z,12.78
2022-10-18T21:03:40.150Z,12.77
2022-10-18T21:06:15.787Z,12.76
2022-10-18T21:08:43.077Z,12.74
2022-10-18T21:11:10.602Z,12.72
2022-10-18T21:13:38.444Z,12.70
2022-10-18T21:16:05.893Z,12.68
2022-10-18T21:18:34.150Z,12.67
2022-10-18T21:21:18.357Z,12.67
2022-10-18T21:23:45.908Z,12.69
2022-10-18T21:26:17.896Z,12.68
2022-10-18T21:28:45.465Z,12.66
2022-10-18T21:31:14.919Z,12.64
2022-10-18T21:33:42.442Z,12.64
2022-10-18T21:36:09.796Z,12.63
2022-10-18T21:38:37.511Z,12.61
2022-10-18T21:41:10.893Z,12.58
2022-10-18T21:43:41.978Z,12.56
2022-10-18T21:46:10.093Z,12.54
2022-10-18T21:48:37.304Z,12.50
2022-10-18T21:51:06.067Z,12.48
2022-10-18T21:53:32.720Z,12.50
2022-10-18T21:56:10.591Z,12.52
2022-10-18T21:58:37.368Z,12.53
2022-10-18T22:01:20.704Z,12.53
2022-10-18T22:03:48.888Z,12.54
2022-10-18T22:06:17.061Z,12.51
2022-10-18T22:08:51.530Z,12.46
2022-10-18T22:11:21.052Z,12.42
2022-10-18T22:13:48.492Z,12.35
2022-10-18T22:16:16.381Z,12.28
2022-10-18T22:18:43.797Z,12.23
2022-10-18T22:21:11.752Z,12.20
2022-10-18T22:23:43.473Z,12.18
2022-10-18T22:26:11.948Z,12.13
2022-10-18T22:28:39.354Z,12.10
2022-10-18T22:31:06.025Z,12.08
2022-10-18T22:33:32.811Z,12.03
2022-10-18T22:35:59.534Z,11.97
2022-10-18T22:38:26.161Z,11.90
2022-10-18T22:40:53.425Z,11.86
2022-10-18T22:43:20.077Z,11.81
2022-10-18T22:45:46.702Z,11.75
2022-10-18T22:48:13.381Z,11.69
2022-10-18T22:50:40.016Z,11.62
2022-10-18T22:53:06.644Z,11.56
2022-10-18T22:55:33.321Z,11.52
2022-10-18T22:57:59.936Z,11.45
2022-10-18T23:00:26.683Z,11.41
2022-10-18T23:02:53.379Z,11.40
2022-10-18T23:05:19.997Z,11.37
2022-10-18T23:07:49.651Z,11.36
2022-10-18T23:10:16.444Z,11.34
2022-10-18T23:12:43.177Z,11.32
2022-10-18T23:15:10.169Z,11.29
2022-10-18T23:17:37.344Z,11.24
2022-10-18T23:20:05.267Z,11.21
2022-10-18T23:22:32.372Z,11.16
2022-10-18T23:24:59.313Z,11.12
2022-10-18T23:27:25.960Z,11.06
2022-10-18T23:29:52.823Z,11.02
2022-10-18T23:32:19.492Z,10.97
2022-10-18T23:34:46.129Z,10.92
2022-10-18T23:37:12.758Z,10.87
2022-10-18T23:39:39.888Z,10.82
2022-10-18T23:42:06.796Z,10.77
2022-10-18T23:44:33.552Z,10.72
2022-10-18T23:47:00.261Z,10.66
2022-10-18T23:49:26.939Z,10.60
2022-10-18T23:51:53.589Z,10.54
2022-10-18T23:54:20.496Z,10.49
2022-10-18T23:57:50.085Z,10.46
